sensor_id;sensor_type;location;lat;lon;timestamp;P1;durP1;ratioP1;P2;durP2;ratioP2
18188;SDS011;9219;50.396;8.546;2022-11-18T00:02:00;6.43;;;2.30;;
18188;SDS011;9219;50.396;8.546;2022-11-18T00:04:28;2.10;;;1.40;;
18188;SDS011;9219;50.396;8.546;2022-11-18T00:06:56;4.63;;;1.30;;
18188;SDS011;9219;50.396;8.546;2022-11-18T00:12:26;2.53;;;1.70;;
18188;SDS011;9219;50.396;8.546;2022-11-18T00:15:34;5.20;;;1.73;;
18188;SDS011;9219;50.396;8.546;2022-11-18T00:18:17;15.43;;;2.63;;
18188;SDS011;9219;50.396;8.546;2022-11-18T00:20:59;3.47;;;1.93;;
18188;SDS011;9219;50.396;8.546;2022-11-18T00:23:39;7.67;;;2.50;;
18188;SDS011;9219;50.396;8.546;2022-11-18T00:33:44;5.80;;;1.90;;
18188;SDS011;9219;50.396;8.546;2022-11-18T00:36:31;4.57;;;2.90;;
18188;SDS011;9219;50.396;8.546;2022-11-18T00:39:47;7.73;;;2.60;;
18188;SDS011;9219;50.396;8.546;2022-11-18T00:45:42;9.47;;;3.43;;
18188;SDS011;9219;50.396;8.546;2022-11-18T00:48:40;8.70;;;4.60;;
18188;SDS011;9219;50.396;8.546;2022-11-18T00:55:47;7.30;;;4.60;;
18188;SDS011;9219;50.396;8.546;2022-11-18T01:02:55;11.77;;;4.60;;
18188;SDS011;9219;50.396;8.546;2022-11-18T01:06:11;5.83;;;3.90;;
18188;SDS011;9219;50.396;8.546;2022-11-18T01:09:31;12.43;;;4.27;;
18188;SDS011;9219;50.396;8.546;2022-11-18T01:13:18;10.47;;;4.80;;
18188;SDS011;9219;50.396;8.546;2022-11-18T01:16:19;10.57;;;5.40;;
18188;SDS011;9219;50.396;8.546;2022-11-18T01:23:11;8.30;;;4.43;;
18188;SDS011;9219;50.396;8.546;2022-11-18T01:25:40;12.20;;;4.20;;
18188;SDS011;9219;50.396;8.546;2022-11-18T01:28:09;10.10;;;3.47;;
18188;SDS011;9219;50.396;8.546;2022-11-18T01:30:37;6.67;;;2.70;;
18188;SDS011;9219;50.396;8.546;2022-11-18T01:33:05;5.67;;;1.90;;
18188;SDS011;9219;50.396;8.546;2022-11-18T01:35:33;2.63;;;1.60;;
18188;SDS011;9219;50.396;8.546;2022-11-18T01:38:01;2.67;;;1.93;;
18188;SDS011;9219;50.396;8.546;2022-11-18T01:40:30;4.23;;;2.10;;
18188;SDS011;9219;50.396;8.546;2022-11-18T01:42:57;4.37;;;2.23;;
18188;SDS011;9219;50.396;8.546;2022-11-18T01:50:36;5.53;;;1.60;;
18188;SDS011;9219;50.396;8.546;2022-11-18T01:53:07;2.47;;;1.50;;
18188;SDS011;9219;50.396;8.546;2022-11-18T01:55:38;6.50;;;1.67;;
18188;SDS011;9219;50.396;8.546;2022-11-18T01:58:11;5.33;;;1.30;;
18188;SDS011;9219;50.396;8.546;2022-11-18T02:00:43;4.07;;;1.20;;
18188;SDS011;9219;50.396;8.546;2022-11-18T02:03:13;3.87;;;1.47;;
18188;SDS011;9219;50.396;8.546;2022-11-18T02:05:46;5.03;;;1.37;;
18188;SDS011;9219;50.396;8.546;2022-11-18T02:08:15;5.27;;;1.87;;
18188;SDS011;9219;50.396;8.546;2022-11-18T02:10:59;5.80;;;1.33;;
18188;SDS011;9219;50.396;8.546;2022-11-18T02:13:28;4.60;;;1.40;;
18188;SDS011;9219;50.396;8.546;2022-11-18T02:15:59;5.90;;;1.60;;
18188;SDS011;9219;50.396;8.546;2022-11-18T02:18:34;8.70;;;1.37;;
18188;SDS011;9219;50.396;8.546;2022-11-18T02:21:16;2.70;;;1.10;;
18188;SDS011;9219;50.396;8.546;2022-11-18T02:24:00;6.00;;;1.00;;
18188;SDS011;9219;50.396;8.546;2022-11-18T02:33:27;7.43;;;1.17;;
18188;SDS011;9219;50.396;8.546;2022-11-18T02:36:03;4.03;;;1.40;;
18188;SDS011;9219;50.396;8.546;2022-11-18T02:38:35;4.77;;;1.10;;
18188;SDS011;9219;50.396;8.546;2022-11-18T02:41:09;5.40;;;1.27;;
18188;SDS011;9219;50.396;8.546;2022-11-18T02:43:43;7.50;;;1.60;;
18188;SDS011;9219;50.396;8.546;2022-11-18T02:46:14;2.47;;;1.07;;
18188;SDS011;9219;50.396;8.546;2022-11-18T02:48:47;1.33;;;0.63;;
18188;SDS011;9219;50.396;8.546;2022-11-18T02:56:27;3.70;;;1.30;;
18188;SDS011;9219;50.396;8.546;2022-11-18T02:58:57;3.07;;;1.00;;
18188;SDS011;9219;50.396;8.546;2022-11-18T03:01:25;3.17;;;1.23;;
18188;SDS011;9219;50.396;8.546;2022-11-18T03:03:55;2.80;;;1.40;;
18188;SDS011;9219;50.396;8.546;2022-11-18T03:06:26;2.93;;;1.33;;
18188;SDS011;9219;50.396;8.546;2022-11-18T03:09:02;2.00;;;1.27;;
18188;SDS011;9219;50.396;8.546;2022-11-18T03:11:44;3.30;;;1.00;;
18188;SDS011;9219;50.396;8.546;2022-11-18T03:14:39;5.13;;;1.87;;
18188;SDS011;9219;50.396;8.546;2022-11-18T03:57:20;5.87;;;1.50;;
18188;SDS011;9219;50.396;8.546;2022-11-18T03:59:51;8.60;;;1.93;;
18188;SDS011;9219;50.396;8.546;2022-11-18T04:02:24;10.67;;;1.87;;
18188;SDS011;9219;50.396;8.546;2022-11-18T04:04:55;9.57;;;2.90;;
18188;SDS011;9219;50.396;8.546;2022-11-18T04:07:23;7.13;;;2.10;;
18188;SDS011;9219;50.396;8.546;2022-11-18T04:09:58;13.20;;;2.27;;
18188;SDS011;9219;50.396;8.546;2022-11-18T04:12:34;6.83;;;2.53;;
18188;SDS011;9219;50.396;8.546;2022-11-18T04:20:13;178.10;;;15.27;;
18188;SDS011;9219;50.396;8.546;2022-11-18T04:22:42;233.17;;;14.23;;
18188;SDS011;9219;50.396;8.546;2022-11-18T04:25:10;10.77;;;3.00;;
18188;SDS011;9219;50.396;8.546;2022-11-18T04:27:37;3.70;;;2.53;;
18188;SDS011;9219;50.396;8.546;2022-11-18T04:30:06;15.30;;;3.33;;
18188;SDS011;9219;50.396;8.546;2022-11-18T04:32:34;15.43;;;3.53;;
18188;SDS011;9219;50.396;8.546;2022-11-18T04:35:02;11.20;;;3.60;;
18188;SDS011;9219;50.396;8.546;2022-11-18T04:42:35;17.60;;;4.17;;
18188;SDS011;9219;50.396;8.546;2022-11-18T04:45:05;12.70;;;4.03;;
18188;SDS011;9219;50.396;8.546;2022-11-18T04:47:34;16.80;;;3.57;;
18188;SDS011;9219;50.396;8.546;2022-11-18T04:50:01;12.10;;;3.43;;
18188;SDS011;9219;50.396;8.546;2022-11-18T04:52:29;11.70;;;3.10;;
18188;SDS011;9219;50.396;8.546;2022-11-18T04:54:57;11.10;;;3.10;;
18188;SDS011;9219;50.396;8.546;2022-11-18T04:57:24;138.70;;;9.63;;
18188;SDS011;9219;50.396;8.546;2022-11-18T05:02:34;50.00;;;5.43;;
18188;SDS011;9219;50.396;8.546;2022-11-18T05:05:01;11.60;;;3.20;;
18188;SDS011;9219;50.396;8.546;2022-11-18T05:07:29;28.33;;;5.40;;
18188;SDS011;9219;50.396;8.546;2022-11-18T05:09:57;41.83;;;5.77;;
18188;SDS011;9219;50.396;8.546;2022-11-18T05:12:24;253.20;;;20.57;;
18188;SDS011;9219;50.396;8.546;2022-11-18T05:15:12;285.17;;;21.20;;
18188;SDS011;9219;50.396;8.546;2022-11-18T05:17:41;381.13;;;22.30;;
18188;SDS011;9219;50.396;8.546;2022-11-18T05:20:09;323.80;;;20.23;;
18188;SDS011;9219;50.396;8.546;2022-11-18T05:27:43;287.97;;;13.30;;
18188;SDS011;9219;50.396;8.546;2022-11-18T05:30:11;220.30;;;13.20;;
18188;SDS011;9219;50.396;8.546;2022-11-18T05:32:40;173.20;;;9.63;;
18188;SDS011;9219;50.396;8.546;2022-11-18T05:35:07;74.50;;;6.20;;
18188;SDS011;9219;50.396;8.546;2022-11-18T05:37:36;113.83;;;8.60;;
18188;SDS011;9219;50.396;8.546;2022-11-18T05:40:03;105.93;;;8.37;;
18188;SDS011;9219;50.396;8.546;2022-11-18T05:42:31;146.23;;;8.93;;
18188;SDS011;9219;50.396;8.546;2022-11-18T05:45:18;231.03;;;12.77;;
18188;SDS011;9219;50.396;8.546;2022-11-18T05:50:24;184.97;;;11.80;;
18188;SDS011;9219;50.396;8.546;2022-11-18T05:52:52;238.93;;;15.70;;
18188;SDS011;9219;50.396;8.546;2022-11-18T05:55:20;188.37;;;12.77;;
18188;SDS011;9219;50.396;8.546;2022-11-18T05:57:51;58.50;;;5.97;;
18188;SDS011;9219;50.396;8.546;2022-11-18T06:00:19;247.27;;;17.07;;
18188;SDS011;9219;50.396;8.546;2022-11-18T06:02:47;266.90;;;18.27;;
18188;SDS011;9219;50.396;8.546;2022-11-18T06:05:17;199.67;;;11.27;;
18188;SDS011;9219;50.396;8.546;2022-11-18T06:13:38;97.90;;;5.43;;
18188;SDS011;9219;50.396;8.546;2022-11-18T06:16:08;173.10;;;12.93;;
18188;SDS011;9219;50.396;8.546;2022-11-18T06:18:38;74.90;;;5.10;;
18188;SDS011;9219;50.396;8.546;2022-11-18T06:21:08;91.30;;;5.57;;
18188;SDS011;9219;50.396;8.546;2022-11-18T06:23:36;6.60;;;2.80;;
18188;SDS011;9219;50.396;8.546;2022-11-18T06:26:09;38.67;;;4.03;;
18188;SDS011;9219;50.396;8.546;2022-11-18T06:28:38;3.63;;;2.67;;
18188;SDS011;9219;50.396;8.546;2022-11-18T06:46:35;22.80;;;3.10;;
18188;SDS011;9219;50.396;8.546;2022-11-18T06:49:24;32.13;;;3.73;;
18188;SDS011;9219;50.396;8.546;2022-11-18T06:52:00;23.10;;;3.23;;
18188;SDS011;9219;50.396;8.546;2022-11-18T06:54:27;37.30;;;3.33;;
18188;SDS011;9219;50.396;8.546;2022-11-18T06:56:55;171.60;;;10.80;;
18188;SDS011;9219;50.396;8.546;2022-11-18T06:59:23;229.47;;;14.30;;
18188;SDS011;9219;50.396;8.546;2022-11-18T07:01:51;416.73;;;27.73;;
18188;SDS011;9219;50.396;8.546;2022-11-18T07:04:21;257.93;;;15.57;;
18188;SDS011;9219;50.396;8.546;2022-11-18T07:12:04;237.00;;;14.33;;
18188;SDS011;9219;50.396;8.546;2022-11-18T07:14:32;305.43;;;21.13;;
18188;SDS011;9219;50.396;8.546;2022-11-18T07:16:59;362.17;;;23.90;;
18188;SDS011;9219;50.396;8.546;2022-11-18T07:19:27;282.47;;;19.63;;
18188;SDS011;9219;50.396;8.546;2022-11-18T07:22:02;239.03;;;18.90;;
18188;SDS011;9219;50.396;8.546;2022-11-18T07:24:29;220.00;;;17.90;;
18188;SDS011;9219;50.396;8.546;2022-11-18T07:26:57;252.53;;;18.83;;
18188;SDS011;9219;50.396;8.546;2022-11-18T07:29:26;115.10;;;11.73;;
18188;SDS011;9219;50.396;8.546;2022-11-18T07:37:24;18.50;;;7.93;;
18188;SDS011;9219;50.396;8.546;2022-11-18T07:39:52;34.70;;;9.20;;
18188;SDS011;9219;50.396;8.546;2022-11-18T07:42:20;39.00;;;9.63;;
18188;SDS011;9219;50.396;8.546;2022-11-18T07:44:48;32.60;;;8.10;;
18188;SDS011;9219;50.396;8.546;2022-11-18T07:47:15;33.40;;;9.40;;
18188;SDS011;9219;50.396;8.546;2022-11-18T07:49:43;42.63;;;11.40;;
18188;SDS011;9219;50.396;8.546;2022-11-18T07:52:10;30.07;;;9.47;;
18188;SDS011;9219;50.396;8.546;2022-11-18T07:54:40;242.00;;;26.43;;
18188;SDS011;9219;50.396;8.546;2022-11-18T08:12:56;40.07;;;9.87;;
18188;SDS011;9219;50.396;8.546;2022-11-18T08:15:24;56.60;;;10.83;;
18188;SDS011;9219;50.396;8.546;2022-11-18T08:17:51;46.80;;;10.73;;
18188;SDS011;9219;50.396;8.546;2022-11-18T08:20:18;135.97;;;17.27;;
18188;SDS011;9219;50.396;8.546;2022-11-18T08:22:46;28.67;;;8.50;;
18188;SDS011;9219;50.396;8.546;2022-11-18T08:25:14;20.53;;;8.63;;
18188;SDS011;9219;50.396;8.546;2022-11-18T08:27:41;22.07;;;9.57;;
18188;SDS011;9219;50.396;8.546;2022-11-18T08:30:12;27.87;;;9.77;;
18188;SDS011;9219;50.396;8.546;2022-11-18T08:38:12;17.07;;;7.37;;
18188;SDS011;9219;50.396;8.546;2022-11-18T08:40:41;23.87;;;9.67;;
18188;SDS011;9219;50.396;8.546;2022-11-18T08:43:10;15.90;;;8.50;;
18188;SDS011;9219;50.396;8.546;2022-11-18T08:45:38;25.77;;;10.53;;
18188;SDS011;9219;50.396;8.546;2022-11-18T08:48:07;130.53;;;17.77;;
18188;SDS011;9219;50.396;8.546;2022-11-18T08:50:35;99.10;;;14.60;;
18188;SDS011;9219;50.396;8.546;2022-11-18T08:53:03;25.80;;;9.57;;
18188;SDS011;9219;50.396;8.546;2022-11-18T09:13:40;23.53;;;8.43;;
18188;SDS011;9219;50.396;8.546;2022-11-18T09:16:45;14.43;;;7.07;;
18188;SDS011;9219;50.396;8.546;2022-11-18T09:19:15;20.17;;;6.17;;
18188;SDS011;9219;50.396;8.546;2022-11-18T09:22:13;13.23;;;6.37;;
18188;SDS011;9219;50.396;8.546;2022-11-18T09:24:44;14.97;;;6.83;;
18188;SDS011;9219;50.396;8.546;2022-11-18T09:27:29;13.57;;;6.57;;
18188;SDS011;9219;50.396;8.546;2022-11-18T09:30:20;16.17;;;6.47;;
18188;SDS011;9219;50.396;8.546;2022-11-18T09:32:51;21.53;;;7.60;;
18188;SDS011;9219;50.396;8.546;2022-11-18T09:35:50;24.83;;;7.57;;
18188;SDS011;9219;50.396;8.546;2022-11-18T09:52:25;20.00;;;8.73;;
18188;SDS011;9219;50.396;8.546;2022-11-18T09:55:25;29.20;;;8.83;;
18188;SDS011;9219;50.396;8.546;2022-11-18T09:58:16;19.63;;;7.90;;
18188;SDS011;9219;50.396;8.546;2022-11-18T10:01:39;16.03;;;8.67;;
18188;SDS011;9219;50.396;8.546;2022-11-18T10:05:20;22.13;;;9.97;;
18188;SDS011;9219;50.396;8.546;2022-11-18T10:08:10;27.73;;;10.63;;
18188;SDS011;9219;50.396;8.546;2022-11-18T10:11:15;20.00;;;8.87;;
18188;SDS011;9219;50.396;8.546;2022-11-18T10:13:50;23.23;;;8.37;;
18188;SDS011;9219;50.396;8.546;2022-11-18T10:25:48;15.07;;;7.30;;
18188;SDS011;9219;50.396;8.546;2022-11-18T10:28:20;13.23;;;6.63;;
18188;SDS011;9219;50.396;8.546;2022-11-18T10:30:50;12.07;;;7.03;;
18188;SDS011;9219;50.396;8.546;2022-11-18T10:33:22;16.77;;;6.50;;
18188;SDS011;9219;50.396;8.546;2022-11-18T10:36:07;10.93;;;6.23;;
18188;SDS011;9219;50.396;8.546;2022-11-18T10:38:37;12.47;;;6.97;;
18188;SDS011;9219;50.396;8.546;2022-11-18T10:41:06;9.00;;;5.53;;
18188;SDS011;9219;50.396;8.546;2022-11-18T10:59:20;12.13;;;6.43;;
18188;SDS011;9219;50.396;8.546;2022-11-18T11:01:58;12.23;;;5.63;;
18188;SDS011;9219;50.396;8.546;2022-11-18T11:04:35;15.43;;;5.60;;
18188;SDS011;9219;50.396;8.546;2022-11-18T11:07:13;9.83;;;5.83;;
18188;SDS011;9219;50.396;8.546;2022-11-18T11:10:00;9.50;;;5.10;;
18188;SDS011;9219;50.396;8.546;2022-11-18T11:12:50;12.90;;;6.27;;
18188;SDS011;9219;50.396;8.546;2022-11-18T11:15:25;15.43;;;6.37;;
18188;SDS011;9219;50.396;8.546;2022-11-18T11:23:23;9.60;;;6.33;;
18188;SDS011;9219;50.396;8.546;2022-11-18T11:25:53;12.67;;;5.67;;
18188;SDS011;9219;50.396;8.546;2022-11-18T11:28:48;12.57;;;5.87;;
18188;SDS011;9219;50.396;8.546;2022-11-18T11:31:24;16.90;;;6.33;;
18188;SDS011;9219;50.396;8.546;2022-11-18T11:33:56;9.10;;;6.10;;
18188;SDS011;9219;50.396;8.546;2022-11-18T11:36:31;16.00;;;5.97;;
18188;SDS011;9219;50.396;8.546;2022-11-18T11:39:17;11.03;;;5.63;;
18188;SDS011;9219;50.396;8.546;2022-11-18T12:00:21;7.20;;;3.90;;
18188;SDS011;9219;50.396;8.546;2022-11-18T12:02:55;8.40;;;4.27;;
18188;SDS011;9219;50.396;8.546;2022-11-18T12:05:30;8.67;;;3.87;;
18188;SDS011;9219;50.396;8.546;2022-11-18T12:08:02;10.60;;;4.60;;
18188;SDS011;9219;50.396;8.546;2022-11-18T12:10:37;9.60;;;4.27;;
18188;SDS011;9219;50.396;8.546;2022-11-18T12:13:23;8.67;;;4.40;;
18188;SDS011;9219;50.396;8.546;2022-11-18T12:16:09;7.37;;;3.93;;
18188;SDS011;9219;50.396;8.546;2022-11-18T12:21:58;6.43;;;2.87;;
18188;SDS011;9219;50.396;8.546;2022-11-18T12:24:32;7.03;;;2.90;;
18188;SDS011;9219;50.396;8.546;2022-11-18T12:27:12;7.20;;;3.03;;
18188;SDS011;9219;50.396;8.546;2022-11-18T12:30:16;7.23;;;3.70;;
18188;SDS011;9219;50.396;8.546;2022-11-18T12:32:45;4.77;;;3.63;;
18188;SDS011;9219;50.396;8.546;2022-11-18T12:35:24;5.27;;;3.20;;
18188;SDS011;9219;50.396;8.546;2022-11-18T12:37:58;10.43;;;3.50;;
18188;SDS011;9219;50.396;8.546;2022-11-18T12:56:11;4.03;;;2.33;;
18188;SDS011;9219;50.396;8.546;2022-11-18T12:58:49;5.10;;;2.70;;
18188;SDS011;9219;50.396;8.546;2022-11-18T13:01:19;6.40;;;2.63;;
18188;SDS011;9219;50.396;8.546;2022-11-18T13:03:48;14.10;;;2.80;;
18188;SDS011;9219;50.396;8.546;2022-11-18T13:06:26;9.40;;;2.47;;
18188;SDS011;9219;50.396;8.546;2022-11-18T13:08:56;5.13;;;2.67;;
18188;SDS011;9219;50.396;8.546;2022-11-18T13:11:27;18.00;;;2.73;;
18188;SDS011;9219;50.396;8.546;2022-11-18T13:19:38;5.50;;;2.60;;
18188;SDS011;9219;50.396;8.546;2022-11-18T13:22:12;6.87;;;2.40;;
18188;SDS011;9219;50.396;8.546;2022-11-18T13:25:01;3.83;;;2.23;;
18188;SDS011;9219;50.396;8.546;2022-11-18T13:27:39;5.63;;;3.03;;
18188;SDS011;9219;50.396;8.546;2022-11-18T13:30:15;5.43;;;3.03;;
18188;SDS011;9219;50.396;8.546;2022-11-18T13:32:46;5.77;;;2.90;;
18188;SDS011;9219;50.396;8.546;2022-11-18T13:35:25;9.10;;;3.87;;
18188;SDS011;9219;50.396;8.546;2022-11-18T13:37:55;6.03;;;3.13;;
18188;SDS011;9219;50.396;8.546;2022-11-18T13:45:29;10.03;;;2.57;;
18188;SDS011;9219;50.396;8.546;2022-11-18T13:48:00;5.23;;;2.40;;
18188;SDS011;9219;50.396;8.546;2022-11-18T13:50:33;6.60;;;2.90;;
18188;SDS011;9219;50.396;8.546;2022-11-18T13:53:08;6.77;;;2.67;;
18188;SDS011;9219;50.396;8.546;2022-11-18T13:55:50;11.03;;;3.30;;
18188;SDS011;9219;50.396;8.546;2022-11-18T13:58:25;4.37;;;2.90;;
18188;SDS011;9219;50.396;8.546;2022-11-18T14:01:17;4.70;;;2.50;;
18188;SDS011;9219;50.396;8.546;2022-11-18T14:11:13;2.47;;;1.80;;
18188;SDS011;9219;50.396;8.546;2022-11-18T14:14:02;5.00;;;1.57;;
18188;SDS011;9219;50.396;8.546;2022-11-18T14:16:30;4.87;;;1.50;;
18188;SDS011;9219;50.396;8.546;2022-11-18T14:19:00;9.23;;;2.03;;
18188;SDS011;9219;50.396;8.546;2022-11-18T14:21:30;7.17;;;1.50;;
18188;SDS011;9219;50.396;8.546;2022-11-18T14:24:01;4.17;;;1.73;;
18188;SDS011;9219;50.396;8.546;2022-11-18T14:26:32;8.07;;;1.40;;
18188;SDS011;9219;50.396;8.546;2022-11-18T14:29:02;13.43;;;3.30;;
18188;SDS011;9219;50.396;8.546;2022-11-18T14:39:20;4.73;;;2.10;;
18188;SDS011;9219;50.396;8.546;2022-11-18T14:41:57;11.67;;;2.40;;
18188;SDS011;9219;50.396;8.546;2022-11-18T14:44:25;6.57;;;2.03;;
18188;SDS011;9219;50.396;8.546;2022-11-18T14:46:56;10.17;;;2.00;;
18188;SDS011;9219;50.396;8.546;2022-11-18T14:49:26;17.83;;;2.70;;
18188;SDS011;9219;50.396;8.546;2022-11-18T14:51:56;9.13;;;1.80;;
18188;SDS011;9219;50.396;8.546;2022-11-18T14:54:28;10.63;;;2.13;;
18188;SDS011;9219;50.396;8.546;2022-11-18T14:56:57;8.20;;;2.40;;
18188;SDS011;9219;50.396;8.546;2022-11-18T15:04:45;5.67;;;2.43;;
18188;SDS011;9219;50.396;8.546;2022-11-18T15:07:15;8.60;;;2.67;;
18188;SDS011;9219;50.396;8.546;2022-11-18T15:09:49;10.47;;;3.20;;
18188;SDS011;9219;50.396;8.546;2022-11-18T15:12:24;5.57;;;2.20;;
18188;SDS011;9219;50.396;8.546;2022-11-18T15:14:52;5.87;;;2.37;;
18188;SDS011;9219;50.396;8.546;2022-11-18T15:17:20;9.97;;;2.50;;
18188;SDS011;9219;50.396;8.546;2022-11-18T15:19:51;5.87;;;2.17;;
18188;SDS011;9219;50.396;8.546;2022-11-18T15:22:22;4.50;;;2.60;;
18188;SDS011;9219;50.396;8.546;2022-11-18T15:33:58;6.10;;;2.23;;
18188;SDS011;9219;50.396;8.546;2022-11-18T15:36:35;5.63;;;1.80;;
18188;SDS011;9219;50.396;8.546;2022-11-18T15:39:18;4.87;;;1.83;;
18188;SDS011;9219;50.396;8.546;2022-11-18T15:41:49;5.30;;;2.40;;
18188;SDS011;9219;50.396;8.546;2022-11-18T15:44:17;2.53;;;1.73;;
18188;SDS011;9219;50.396;8.546;2022-11-18T15:47:42;5.27;;;2.50;;
18188;SDS011;9219;50.396;8.546;2022-11-18T15:50:14;6.17;;;2.17;;
18188;SDS011;9219;50.396;8.546;2022-11-18T15:52:45;14.50;;;2.73;;
18188;SDS011;9219;50.396;8.546;2022-11-18T15:55:35;5.63;;;2.07;;
18188;SDS011;9219;50.396;8.546;2022-11-18T16:13:58;7.23;;;1.73;;
18188;SDS011;9219;50.396;8.546;2022-11-18T16:16:27;2.30;;;1.67;;
18188;SDS011;9219;50.396;8.546;2022-11-18T16:18:56;4.90;;;1.70;;
18188;SDS011;9219;50.396;8.546;2022-11-18T16:21:31;7.40;;;2.20;;
18188;SDS011;9219;50.396;8.546;2022-11-18T16:24:02;5.37;;;2.17;;
18188;SDS011;9219;50.396;8.546;2022-11-18T16:26:32;6.47;;;2.10;;
18188;SDS011;9219;50.396;8.546;2022-11-18T16:29:03;5.33;;;1.70;;
18188;SDS011;9219;50.396;8.546;2022-11-18T16:31:32;3.67;;;1.50;;
18188;SDS011;9219;50.396;8.546;2022-11-18T16:49:52;7.80;;;2.10;;
18188;SDS011;9219;50.396;8.546;2022-11-18T16:52:23;6.43;;;2.53;;
18188;SDS011;9219;50.396;8.546;2022-11-18T16:54:55;5.03;;;1.90;;
18188;SDS011;9219;50.396;8.546;2022-11-18T16:57:25;7.47;;;1.70;;
18188;SDS011;9219;50.396;8.546;2022-11-18T16:59:53;4.57;;;1.67;;
18188;SDS011;9219;50.396;8.546;2022-11-18T17:02:24;4.73;;;1.77;;
18188;SDS011;9219;50.396;8.546;2022-11-18T17:04:59;7.63;;;1.90;;
18188;SDS011;9219;50.396;8.546;2022-11-18T17:07:32;10.47;;;1.90;;
18188;SDS011;9219;50.396;8.546;2022-11-18T17:20:45;11.63;;;2.20;;
18188;SDS011;9219;50.396;8.546;2022-11-18T17:23:19;5.63;;;1.50;;
18188;SDS011;9219;50.396;8.546;2022-11-18T17:25:47;8.93;;;2.43;;
18188;SDS011;9219;50.396;8.546;2022-11-18T17:28:16;4.30;;;2.20;;
18188;SDS011;9219;50.396;8.546;2022-11-18T17:30:44;4.33;;;1.90;;
18188;SDS011;9219;50.396;8.546;2022-11-18T17:33:18;8.53;;;2.10;;
18188;SDS011;9219;50.396;8.546;2022-11-18T17:35:58;7.43;;;2.37;;
18188;SDS011;9219;50.396;8.546;2022-11-18T17:43:39;6.60;;;2.13;;
18188;SDS011;9219;50.396;8.546;2022-11-18T17:46:11;4.33;;;2.13;;
18188;SDS011;9219;50.396;8.546;2022-11-18T17:48:40;5.97;;;2.57;;
18188;SDS011;9219;50.396;8.546;2022-11-18T17:51:10;2.90;;;1.73;;
18188;SDS011;9219;50.396;8.546;2022-11-18T17:53:38;9.43;;;2.70;;
18188;SDS011;9219;50.396;8.546;2022-11-18T17:56:09;6.97;;;2.20;;
18188;SDS011;9219;50.396;8.546;2022-11-18T17:58:40;3.93;;;1.97;;
18188;SDS011;9219;50.396;8.546;2022-11-18T18:01:11;3.87;;;1.90;;
18188;SDS011;9219;50.396;8.546;2022-11-18T18:08:46;9.53;;;2.57;;
18188;SDS011;9219;50.396;8.546;2022-11-18T18:11:17;7.40;;;2.10;;
18188;SDS011;9219;50.396;8.546;2022-11-18T18:13:47;5.23;;;2.00;;
18188;SDS011;9219;50.396;8.546;2022-11-18T18:16:34;12.73;;;2.20;;
18188;SDS011;9219;50.396;8.546;2022-11-18T18:19:05;5.53;;;1.80;;
18188;SDS011;9219;50.396;8.546;2022-11-18T18:21:35;10.23;;;1.87;;
18188;SDS011;9219;50.396;8.546;2022-11-18T18:24:07;4.43;;;1.77;;
18188;SDS011;9219;50.396;8.546;2022-11-18T18:42:08;9.20;;;2.17;;
18188;SDS011;9219;50.396;8.546;2022-11-18T18:44:37;6.10;;;1.73;;
18188;SDS011;9219;50.396;8.546;2022-11-18T18:47:23;5.27;;;2.63;;
18188;SDS011;9219;50.396;8.546;2022-11-18T18:49:51;6.17;;;1.93;;
18188;SDS011;9219;50.396;8.546;2022-11-18T18:52:19;5.43;;;2.23;;
18188;SDS011;9219;50.396;8.546;2022-11-18T18:54:48;7.63;;;1.83;;
18188;SDS011;9219;50.396;8.546;2022-11-18T18:57:19;2.90;;;2.00;;
18188;SDS011;9219;50.396;8.546;2022-11-18T19:18:35;3.27;;;2.13;;
18188;SDS011;9219;50.396;8.546;2022-11-18T19:21:05;9.47;;;2.93;;
18188;SDS011;9219;50.396;8.546;2022-11-18T19:23:43;4.27;;;2.17;;
18188;SDS011;9219;50.396;8.546;2022-11-18T19:26:16;3.80;;;1.97;;
18188;SDS011;9219;50.396;8.546;2022-11-18T19:28:44;5.10;;;2.30;;
18188;SDS011;9219;50.396;8.546;2022-11-18T19:31:13;5.83;;;2.40;;
18188;SDS011;9219;50.396;8.546;2022-11-18T19:33:48;11.70;;;2.77;;
18188;SDS011;9219;50.396;8.546;2022-11-18T19:36:20;7.27;;;2.80;;
18188;SDS011;9219;50.396;8.546;2022-11-18T19:44:23;7.30;;;2.70;;
18188;SDS011;9219;50.396;8.546;2022-11-18T19:46:52;12.30;;;2.80;;
18188;SDS011;9219;50.396;8.546;2022-11-18T19:49:20;6.73;;;2.40;;
18188;SDS011;9219;50.396;8.546;2022-11-18T19:51:48;15.37;;;3.03;;
18188;SDS011;9219;50.396;8.546;2022-11-18T19:54:16;4.70;;;2.03;;
18188;SDS011;9219;50.396;8.546;2022-11-18T19:56:45;5.60;;;2.37;;
18188;SDS011;9219;50.396;8.546;2022-11-18T19:59:14;5.30;;;2.10;;
18188;SDS011;9219;50.396;8.546;2022-11-18T20:01:44;13.00;;;2.43;;
18188;SDS011;9219;50.396;8.546;2022-11-18T20:04:12;5.77;;;2.47;;
18188;SDS011;9219;50.396;8.546;2022-11-18T20:11:48;4.43;;;2.73;;
18188;SDS011;9219;50.396;8.546;2022-11-18T20:14:19;5.93;;;2.30;;
18188;SDS011;9219;50.396;8.546;2022-11-18T20:16:50;4.67;;;2.10;;
18188;SDS011;9219;50.396;8.546;2022-11-18T20:19:18;7.53;;;2.77;;
18188;SDS011;9219;50.396;8.546;2022-11-18T20:21:47;7.67;;;3.13;;
18188;SDS011;9219;50.396;8.546;2022-11-18T20:24:16;7.20;;;2.93;;
18188;SDS011;9219;50.396;8.546;2022-11-18T20:26:45;10.33;;;2.40;;
18188;SDS011;9219;50.396;8.546;2022-11-18T20:32:02;6.17;;;2.50;;
18188;SDS011;9219;50.396;8.546;2022-11-18T20:34:37;8.47;;;2.73;;
18188;SDS011;9219;50.396;8.546;2022-11-18T20:37:10;4.77;;;2.73;;
18188;SDS011;9219;50.396;8.546;2022-11-18T20:39:44;4.90;;;2.23;;
18188;SDS011;9219;50.396;8.546;2022-11-18T20:42:13;7.27;;;2.80;;
18188;SDS011;9219;50.396;8.546;2022-11-18T20:44:56;6.67;;;3.50;;
18188;SDS011;9219;50.396;8.546;2022-11-18T20:47:26;6.33;;;3.10;;
18188;SDS011;9219;50.396;8.546;2022-11-18T20:49:54;8.83;;;2.73;;
18188;SDS011;9219;50.396;8.546;2022-11-18T20:52:23;10.20;;;3.53;;
18188;SDS011;9219;50.396;8.546;2022-11-18T20:59:58;11.33;;;2.77;;
18188;SDS011;9219;50.396;8.546;2022-11-18T21:02:26;3.50;;;2.40;;
18188;SDS011;9219;50.396;8.546;2022-11-18T21:04:55;7.77;;;2.83;;
18188;SDS011;9219;50.396;8.546;2022-11-18T21:07:24;11.17;;;2.67;;
18188;SDS011;9219;50.396;8.546;2022-11-18T21:09:52;4.20;;;2.90;;
18188;SDS011;9219;50.396;8.546;2022-11-18T21:12:20;4.83;;;2.77;;
18188;SDS011;9219;50.396;8.546;2022-11-18T21:14:48;6.43;;;3.73;;
18188;SDS011;9219;50.396;8.546;2022-11-18T21:19:54;10.07;;;5.47;;
18188;SDS011;9219;50.396;8.546;2022-11-18T21:22:45;7.30;;;4.83;;
18188;SDS011;9219;50.396;8.546;2022-11-18T21:25:14;11.47;;;6.50;;
18188;SDS011;9219;50.396;8.546;2022-11-18T21:27:44;11.53;;;8.30;;
18188;SDS011;9219;50.396;8.546;2022-11-18T21:30:15;13.53;;;9.67;;
18188;SDS011;9219;50.396;8.546;2022-11-18T21:32:45;14.87;;;10.73;;
18188;SDS011;9219;50.396;8.546;2022-11-18T21:35:14;12.37;;;9.17;;
18188;SDS011;9219;50.396;8.546;2022-11-18T21:37:46;14.57;;;10.10;;
18188;SDS011;9219;50.396;8.546;2022-11-18T21:45:19;95.93;;;12.23;;
18188;SDS011;9219;50.396;8.546;2022-11-18T21:47:48;32.67;;;6.13;;
18188;SDS011;9219;50.396;8.546;2022-11-18T21:50:19;15.37;;;3.73;;
18188;SDS011;9219;50.396;8.546;2022-11-18T21:52:47;81.33;;;8.17;;
18188;SDS011;9219;50.396;8.546;2022-11-18T21:55:21;9.30;;;2.13;;
18188;SDS011;9219;50.396;8.546;2022-11-18T21:57:51;16.07;;;2.53;;
18188;SDS011;9219;50.396;8.546;2022-11-18T22:00:30;98.87;;;7.40;;
18188;SDS011;9219;50.396;8.546;2022-11-18T22:08:03;15.23;;;3.63;;
18188;SDS011;9219;50.396;8.546;2022-11-18T22:10:36;2.87;;;1.93;;
18188;SDS011;9219;50.396;8.546;2022-11-18T22:13:05;4.67;;;2.43;;
18188;SDS011;9219;50.396;8.546;2022-11-18T22:15:35;3.67;;;2.93;;
18188;SDS011;9219;50.396;8.546;2022-11-18T22:18:06;3.40;;;3.03;;
18188;SDS011;9219;50.396;8.546;2022-11-18T22:20:34;3.70;;;2.90;;
18188;SDS011;9219;50.396;8.546;2022-11-18T22:23:06;14.53;;;4.50;;
18188;SDS011;9219;50.396;8.546;2022-11-18T22:25:37;19.90;;;3.53;;
18188;SDS011;9219;50.396;8.546;2022-11-18T22:28:04;35.50;;;4.30;;
18188;SDS011;9219;50.396;8.546;2022-11-18T22:41:12;3.83;;;2.93;;